sensor_id;sensor_type;location;lat;lon;timestamp;pressure;altitude;pressure_sealevel;temperature;humidity
9746;BME280;4912;50.836;12.958;2024-01-16T00:02:26;96422.56;;;0.54;100.00
9746;BME280;4912;50.836;12.958;2024-01-16T00:04:56;96425.84;;;0.49;100.00
9746;BME280;4912;50.836;12.958;2024-01-16T00:07:27;96430.63;;;0.45;99.72
9746;BME280;4912;50.836;12.958;2024-01-16T00:09:59;96436.94;;;0.54;98.75
9746;BME280;4912;50.836;12.958;2024-01-16T00:12:32;96428.91;;;0.51;97.32
9746;BME280;4912;50.836;12.958;2024-01-16T00:15:04;96442.16;;;0.49;96.27
9746;BME280;4912;50.836;12.958;2024-01-16T00:17:36;96438.59;;;0.52;96.35
9746;BME280;4912;50.836;12.958;2024-01-16T00:20:07;96437.16;;;0.60;94.55
9746;BME280;4912;50.836;12.958;2024-01-16T00:22:38;96448.38;;;0.62;94.46
9746;BME280;4912;50.836;12.958;2024-01-16T00:25:09;96442.59;;;0.72;94.97
9746;BME280;4912;50.836;12.958;2024-01-16T00:27:42;96444.34;;;0.79;95.55
9746;BME280;4912;50.836;12.958;2024-01-16T00:30:13;96451.53;;;0.86;95.67
9746;BME280;4912;50.836;12.958;2024-01-16T00:32:44;96457.19;;;0.91;95.42
9746;BME280;4912;50.836;12.958;2024-01-16T00:35:15;96453.81;;;0.87;94.82
9746;BME280;4912;50.836;12.958;2024-01-16T00:37:45;96453.81;;;0.87;93.77
9746;BME280;4912;50.836;12.958;2024-01-16T00:40:16;96449.91;;;0.88;93.55
9746;BME280;4912;50.836;12.958;2024-01-16T00:42:49;96456.34;;;0.94;93.20
9746;BME280;4912;50.836;12.958;2024-01-16T00:45:21;96457.09;;;0.82;91.63
9746;BME280;4912;50.836;12.958;2024-01-16T00:47:52;96461.31;;;0.83;90.68
9746;BME280;4912;50.836;12.958;2024-01-16T00:50:23;96460.13;;;0.84;90.71
9746;BME280;4912;50.836;12.958;2024-01-16T00:52:54;96461.53;;;0.89;90.65
9746;BME280;4912;50.836;12.958;2024-01-16T00:55:24;96464.50;;;0.94;90.28
9746;BME280;4912;50.836;12.958;2024-01-16T00:57:58;96462.97;;;0.93;90.04
9746;BME280;4912;50.836;12.958;2024-01-16T01:00:28;96458.81;;;0.89;89.51
9746;BME280;4912;50.836;12.958;2024-01-16T01:03:00;96472.41;;;1.01;88.65
9746;BME280;4912;50.836;12.958;2024-01-16T01:05:31;96477.56;;;0.99;88.22
9746;BME280;4912;50.836;12.958;2024-01-16T01:08:02;96479.59;;;1.08;88.10
9746;BME280;4912;50.836;12.958;2024-01-16T01:10:32;96484.06;;;1.02;87.49
9746;BME280;4912;50.836;12.958;2024-01-16T01:13:06;96488.66;;;1.05;87.51
9746;BME280;4912;50.836;12.958;2024-01-16T01:15:36;96485.19;;;1.04;87.23
9746;BME280;4912;50.836;12.958;2024-01-16T01:18:07;96489.53;;;1.02;86.75
9746;BME280;4912;50.836;12.958;2024-01-16T01:20:38;96494.97;;;1.02;86.60
9746;BME280;4912;50.836;12.958;2024-01-16T01:23:09;96495.09;;;0.98;85.73
9746;BME280;4912;50.836;12.958;2024-01-16T01:25:40;96512.06;;;1.02;86.93
9746;BME280;4912;50.836;12.958;2024-01-16T01:28:13;96511.94;;;1.18;86.24
9746;BME280;4912;50.836;12.958;2024-01-16T01:30:43;96515.66;;;1.24;84.86
9746;BME280;4912;50.836;12.958;2024-01-16T01:33:14;96519.91;;;1.26;84.17
9746;BME280;4912;50.836;12.958;2024-01-16T01:35:45;96524.28;;;1.23;83.64
9746;BME280;4912;50.836;12.958;2024-01-16T01:38:15;96520.13;;;1.18;83.31
9746;BME280;4912;50.836;12.958;2024-01-16T01:40:46;96530.69;;;1.29;83.31
9746;BME280;4912;50.836;12.958;2024-01-16T01:43:20;96531.56;;;1.39;83.00
9746;BME280;4912;50.836;12.958;2024-01-16T01:46:08;96534.41;;;1.35;82.29
9746;BME280;4912;50.836;12.958;2024-01-16T01:48:40;96542.47;;;1.26;82.65
9746;BME280;4912;50.836;12.958;2024-01-16T01:51:12;96535.81;;;1.40;83.05
9746;BME280;4912;50.836;12.958;2024-01-16T01:53:45;96534.28;;;1.39;82.56
9746;BME280;4912;50.836;12.958;2024-01-16T01:56:19;96540.06;;;1.41;81.72
9746;BME280;4912;50.836;12.958;2024-01-16T01:58:54;96541.34;;;1.49;81.83
9746;BME280;4912;50.836;12.958;2024-01-16T02:01:28;96540.16;;;1.50;80.89
9746;BME280;4912;50.836;12.958;2024-01-16T02:04:01;96537.88;;;1.36;80.64
9746;BME280;4912;50.836;12.958;2024-01-16T02:06:32;96547.25;;;1.35;80.11
9746;BME280;4912;50.836;12.958;2024-01-16T02:09:03;96543.09;;;1.30;79.99
9746;BME280;4912;50.836;12.958;2024-01-16T02:11:41;96557.72;;;1.23;80.21
9746;BME280;4912;50.836;12.958;2024-01-16T02:14:15;96554.88;;;1.27;80.16
9746;BME280;4912;50.836;12.958;2024-01-16T02:16:45;96552.16;;;1.27;80.04
9746;BME280;4912;50.836;12.958;2024-01-16T02:19:16;96547.56;;;1.24;79.92
9746;BME280;4912;50.836;12.958;2024-01-16T02:21:48;96562.63;;;1.29;80.42
9746;BME280;4912;50.836;12.958;2024-01-16T02:24:21;96560.66;;;1.29;80.02
9746;BME280;4912;50.836;12.958;2024-01-16T02:26:52;96557.91;;;1.42;79.71
9746;BME280;4912;50.836;12.958;2024-01-16T02:29:23;96562.50;;;1.45;78.53
9746;BME280;4912;50.836;12.958;2024-01-16T02:31:54;96567.41;;;1.50;78.63
9746;BME280;4912;50.836;12.958;2024-01-16T02:34:25;96564.13;;;1.55;78.58
9746;BME280;4912;50.836;12.958;2024-01-16T02:36:55;96579.28;;;1.56;78.89
9746;BME280;4912;50.836;12.958;2024-01-16T02:39:28;96573.25;;;1.61;77.76
9746;BME280;4912;50.836;12.958;2024-01-16T02:41:59;96577.94;;;1.60;76.97
9746;BME280;4912;50.836;12.958;2024-01-16T02:44:29;96588.44;;;1.62;77.31
9746;BME280;4912;50.836;12.958;2024-01-16T02:47:00;96587.09;;;1.67;77.77
9746;BME280;4912;50.836;12.958;2024-01-16T02:49:32;96588.06;;;1.73;77.76
9746;BME280;4912;50.836;12.958;2024-01-16T02:52:05;96580.69;;;1.60;77.23
9746;BME280;4912;50.836;12.958;2024-01-16T02:54:38;96592.47;;;1.57;77.86
9746;BME280;4912;50.836;12.958;2024-01-16T02:57:09;96593.53;;;1.60;79.14
9746;BME280;4912;50.836;12.958;2024-01-16T02:59:39;96589.19;;;1.62;79.24
9746;BME280;4912;50.836;12.958;2024-01-16T03:02:10;96595.19;;;1.70;78.60
9746;BME280;4912;50.836;12.958;2024-01-16T03:04:41;96608.34;;;1.72;78.33
9746;BME280;4912;50.836;12.958;2024-01-16T03:07:11;96605.13;;;1.64;77.80
9746;BME280;4912;50.836;12.958;2024-01-16T03:09:44;96612.75;;;1.69;78.49
9746;BME280;4912;50.836;12.958;2024-01-16T03:12:15;96605.41;;;1.66;78.54
9746;BME280;4912;50.836;12.958;2024-01-16T03:14:45;96604.22;;;1.67;78.35
9746;BME280;4912;50.836;12.958;2024-01-16T03:17:16;96605.88;;;1.64;78.11
9746;BME280;4912;50.836;12.958;2024-01-16T03:19:47;96599.97;;;1.66;78.04
9746;BME280;4912;50.836;12.958;2024-01-16T03:22:17;96616.22;;;1.70;77.83
9746;BME280;4912;50.836;12.958;2024-01-16T03:24:52;96627.13;;;1.70;77.54
9746;BME280;4912;50.836;12.958;2024-01-16T03:27:24;96617.75;;;1.71;77.51
9746;BME280;4912;50.836;12.958;2024-01-16T03:29:54;96626.03;;;1.67;76.71
9746;BME280;4912;50.836;12.958;2024-01-16T03:32:25;96618.84;;;1.73;77.23
9746;BME280;4912;50.836;12.958;2024-01-16T03:34:56;96625.81;;;1.74;76.99
9746;BME280;4912;50.836;12.958;2024-01-16T03:37:27;96633.22;;;1.74;77.42
9746;BME280;4912;50.836;12.958;2024-01-16T03:40:00;96628.31;;;1.81;77.70
9746;BME280;4912;50.836;12.958;2024-01-16T03:42:31;96634.63;;;1.78;77.36
9746;BME280;4912;50.836;12.958;2024-01-16T03:45:01;96637.69;;;1.68;77.28
9746;BME280;4912;50.836;12.958;2024-01-16T03:47:32;96637.59;;;1.71;77.77
9746;BME280;4912;50.836;12.958;2024-01-16T03:50:03;96634.97;;;1.68;77.88
9746;BME280;4912;50.836;12.958;2024-01-16T03:52:34;96651.97;;;1.72;78.02
9746;BME280;4912;50.836;12.958;2024-01-16T03:55:07;96649.38;;;1.68;77.69
9746;BME280;4912;50.836;12.958;2024-01-16T03:57:38;96658.75;;;1.67;77.66
9746;BME280;4912;50.836;12.958;2024-01-16T04:00:11;96648.94;;;1.70;78.25
9746;BME280;4912;50.836;12.958;2024-01-16T04:02:42;96661.91;;;1.78;78.09
9746;BME280;4912;50.836;12.958;2024-01-16T04:05:13;96653.63;;;1.69;77.52
9746;BME280;4912;50.836;12.958;2024-01-16T04:07:44;96649.91;;;1.76;77.33
9746;BME280;4912;50.836;12.958;2024-01-16T04:10:18;96653.94;;;1.71;76.74
9746;BME280;4912;50.836;12.958;2024-01-16T04:12:48;96659.19;;;1.78;77.37
9746;BME280;4912;50.836;12.958;2024-01-16T04:15:19;96663.44;;;1.79;76.97
9746;BME280;4912;50.836;12.958;2024-01-16T04:17:49;96661.69;;;1.73;76.46
9746;BME280;4912;50.836;12.958;2024-01-16T04:20:20;96664.19;;;1.80;76.67
9746;BME280;4912;50.836;12.958;2024-01-16T04:22:51;96669.09;;;1.72;76.28
9746;BME280;4912;50.836;12.958;2024-01-16T04:25:24;96671.94;;;1.81;76.01
9746;BME280;4912;50.836;12.958;2024-01-16T04:27:55;96687.84;;;1.83;75.21
9746;BME280;4912;50.836;12.958;2024-01-16T04:30:29;96678.94;;;1.82;75.47
9746;BME280;4912;50.836;12.958;2024-01-16T04:33:00;96676.50;;;1.84;75.62
9746;BME280;4912;50.836;12.958;2024-01-16T04:35:31;96685.03;;;1.86;75.86
9746;BME280;4912;50.836;12.958;2024-01-16T04:38:01;96687.41;;;1.97;76.10
9746;BME280;4912;50.836;12.958;2024-01-16T04:40:35;96697.34;;;2.03;75.53
9746;BME280;4912;50.836;12.958;2024-01-16T04:43:06;96693.72;;;2.06;76.01
9746;BME280;4912;50.836;12.958;2024-01-16T04:45:36;96697.91;;;1.98;76.27
9746;BME280;4912;50.836;12.958;2024-01-16T04:48:07;96698.31;;;1.84;75.37
9746;BME280;4912;50.836;12.958;2024-01-16T04:50:38;96695.50;;;1.75;76.45
9746;BME280;4912;50.836;12.958;2024-01-16T04:53:08;96703.78;;;1.72;76.18
9746;BME280;4912;50.836;12.958;2024-01-16T04:55:42;96703.13;;;1.68;76.54
9746;BME280;4912;50.836;12.958;2024-01-16T04:58:12;96693.09;;;1.77;76.69
9746;BME280;4912;50.836;12.958;2024-01-16T05:00:43;96708.59;;;1.80;76.97
9746;BME280;4912;50.836;12.958;2024-01-16T05:03:11;96708.47;;;1.71;76.42
9746;BME280;4912;50.836;12.958;2024-01-16T05:05:41;96719.38;;;1.71;76.46
9746;BME280;4912;50.836;12.958;2024-01-16T05:08:12;96704.88;;;1.74;76.56
9746;BME280;4912;50.836;12.958;2024-01-16T05:10:45;96700.97;;;1.75;76.41
9746;BME280;4912;50.836;12.958;2024-01-16T05:13:16;96693.97;;;1.74;75.87
9746;BME280;4912;50.836;12.958;2024-01-16T05:15:47;96702.38;;;1.67;76.40
9746;BME280;4912;50.836;12.958;2024-01-16T05:18:17;96690.38;;;1.64;76.21
9746;BME280;4912;50.836;12.958;2024-01-16T05:20:48;96706.84;;;1.61;76.08
9746;BME280;4912;50.836;12.958;2024-01-16T05:23:19;96713.59;;;1.69;76.33
9746;BME280;4912;50.836;12.958;2024-01-16T05:25:52;96716.19;;;1.60;76.54
9746;BME280;4912;50.836;12.958;2024-01-16T05:28:23;96723.19;;;1.61;77.12
9746;BME280;4912;50.836;12.958;2024-01-16T05:30:53;96729.53;;;1.58;77.18
9746;BME280;4912;50.836;12.958;2024-01-16T05:33:24;96744.34;;;1.57;78.00
9746;BME280;4912;50.836;12.958;2024-01-16T05:35:57;96744.34;;;1.57;79.06
9746;BME280;4912;50.836;12.958;2024-01-16T05:38:27;96738.56;;;1.55;80.20
9746;BME280;4912;50.836;12.958;2024-01-16T05:41:01;96739.97;;;1.47;81.11
9746;BME280;4912;50.836;12.958;2024-01-16T05:43:31;96747.81;;;1.45;81.66
9746;BME280;4912;50.836;12.958;2024-01-16T05:46:02;96747.38;;;1.46;82.39
9746;BME280;4912;50.836;12.958;2024-01-16T05:48:35;96747.25;;;1.37;82.62
9746;BME280;4912;50.836;12.958;2024-01-16T05:51:06;96754.34;;;1.35;82.90
9746;BME280;4912;50.836;12.958;2024-01-16T05:53:37;96751.38;;;1.29;83.06
9746;BME280;4912;50.836;12.958;2024-01-16T05:56:11;96765.97;;;1.22;83.45
9746;BME280;4912;50.836;12.958;2024-01-16T05:58:41;96760.75;;;1.28;83.93
9746;BME280;4912;50.836;12.958;2024-01-16T06:01:12;96757.34;;;1.24;84.31
9746;BME280;4912;50.836;12.958;2024-01-16T06:03:43;96760.16;;;1.20;84.10
9746;BME280;4912;50.836;12.958;2024-01-16T06:06:16;96769.69;;;1.29;83.57
9746;BME280;4912;50.836;12.958;2024-01-16T06:08:47;96759.88;;;1.31;83.16
9746;BME280;4912;50.836;12.958;2024-01-16T06:11:29;96759.09;;;1.31;82.58
9746;BME280;4912;50.836;12.958;2024-01-16T06:14:02;96766.63;;;1.27;82.65
9746;BME280;4912;50.836;12.958;2024-01-16T06:16:32;96752.94;;;1.14;81.47
9746;BME280;4912;50.836;12.958;2024-01-16T06:19:03;96764.28;;;1.12;81.55
9746;BME280;4912;50.836;12.958;2024-01-16T06:21:35;96775.50;;;1.14;81.08
9746;BME280;4912;50.836;12.958;2024-01-16T06:24:06;96770.41;;;1.16;80.76
9746;BME280;4912;50.836;12.958;2024-01-16T06:26:41;96773.78;;;1.20;80.23
9746;BME280;4912;50.836;12.958;2024-01-16T06:29:12;96777.47;;;1.14;79.25
9746;BME280;4912;50.836;12.958;2024-01-16T06:31:57;96771.06;;;1.20;79.71
9746;BME280;4912;50.836;12.958;2024-01-16T06:34:28;96779.38;;;1.30;79.41
9746;BME280;4912;50.836;12.958;2024-01-16T06:36:58;96776.63;;;1.17;77.92
9746;BME280;4912;50.836;12.958;2024-01-16T06:39:29;96782.06;;;1.17;77.96
9746;BME280;4912;50.836;12.958;2024-01-16T06:42:03;96778.66;;;1.13;78.40
9746;BME280;4912;50.836;12.958;2024-01-16T06:44:37;96785.75;;;1.10;77.49
9746;BME280;4912;50.836;12.958;2024-01-16T06:47:08;96789.41;;;1.04;77.63
9746;BME280;4912;50.836;12.958;2024-01-16T06:49:38;96789.25;;;1.11;77.66
9746;BME280;4912;50.836;12.958;2024-01-16T06:52:09;96797.47;;;1.07;77.38
9746;BME280;4912;50.836;12.958;2024-01-16T06:54:40;96796.81;;;1.03;77.55
9746;BME280;4912;50.836;12.958;2024-01-16T06:57:13;96806.41;;;1.08;77.69
9746;BME280;4912;50.836;12.958;2024-01-16T06:59:44;96804.03;;;1.10;77.30
9746;BME280;4912;50.836;12.958;2024-01-16T07:02:14;96805.47;;;1.14;77.57
9746;BME280;4912;50.836;12.958;2024-01-16T07:04:45;96815.19;;;1.15;76.78
9746;BME280;4912;50.836;12.958;2024-01-16T07:07:16;96811.03;;;1.11;76.95
9746;BME280;4912;50.836;12.958;2024-01-16T07:09:46;96818.19;;;1.05;77.04
9746;BME280;4912;50.836;12.958;2024-01-16T07:12:20;96827.72;;;0.97;76.71
9746;BME280;4912;50.836;12.958;2024-01-16T07:14:50;96824.59;;;0.98;76.92
9746;BME280;4912;50.836;12.958;2024-01-16T07:17:21;96832.94;;;0.91;76.97
9746;BME280;4912;50.836;12.958;2024-01-16T07:19:52;96839.50;;;0.94;76.97
9746;BME280;4912;50.836;12.958;2024-01-16T07:22:22;96842.97;;;0.94;76.63
9746;BME280;4912;50.836;12.958;2024-01-16T07:24:54;96859.13;;;0.85;76.66
9746;BME280;4912;50.836;12.958;2024-01-16T07:27:27;96840.44;;;0.87;76.45
9746;BME280;4912;50.836;12.958;2024-01-16T07:29:57;96841.44;;;0.93;75.97
9746;BME280;4912;50.836;12.958;2024-01-16T07:32:28;96850.63;;;0.83;76.23
9746;BME280;4912;50.836;12.958;2024-01-16T07:34:59;96848.88;;;0.76;76.59
9746;BME280;4912;50.836;12.958;2024-01-16T07:37:30;96852.84;;;0.72;76.69
9746;BME280;4912;50.836;12.958;2024-01-16T07:40:01;96857.09;;;0.73;76.76
9746;BME280;4912;50.836;12.958;2024-01-16T07:42:35;96864.09;;;0.74;76.47
9746;BME280;4912;50.836;12.958;2024-01-16T07:45:07;96867.31;;;0.85;76.42
9746;BME280;4912;50.836;12.958;2024-01-16T07:47:38;96877.69;;;0.90;75.73
9746;BME280;4912;50.836;12.958;2024-01-16T07:50:09;96869.50;;;0.90;75.39
9746;BME280;4912;50.836;12.958;2024-01-16T07:52:40;96875.31;;;0.92;75.79
9746;BME280;4912;50.836;12.958;2024-01-16T07:55:10;96873.78;;;0.91;75.79
9746;BME280;4912;50.836;12.958;2024-01-16T07:57:43;96879.88;;;0.95;76.20
9746;BME280;4912;50.836;12.958;2024-01-16T08:00:15;96885.69;;;0.97;75.82
9746;BME280;4912;50.836;12.958;2024-01-16T08:02:46;96891.09;;;1.13;77.50
9746;BME280;4912;50.836;12.958;2024-01-16T08:05:17;96881.91;;;1.23;75.79
9746;BME280;4912;50.836;12.958;2024-01-16T08:07:49;96884.97;;;1.26;75.07
9746;BME280;4912;50.836;12.958;2024-01-16T08:10:19;96886.22;;;1.37;74.56
9746;BME280;4912;50.836;12.958;2024-01-16T08:12:53;96891.13;;;1.58;74.61
9746;BME280;4912;50.836;12.958;2024-01-16T08:15:23;96893.25;;;1.80;72.91
9746;BME280;4912;50.836;12.958;2024-01-16T08:17:54;96886.91;;;1.70;73.57
9746;BME280;4912;50.836;12.958;2024-01-16T08:20:25;96893.25;;;1.51;73.20
9746;BME280;4912;50.836;12.958;2024-01-16T08:22:55;96899.75;;;1.41;73.59
9746;BME280;4912;50.836;12.958;2024-01-16T08:25:26;96888.44;;;1.26;74.30
9746;BME280;4912;50.836;12.958;2024-01-16T08:27:59;96901.16;;;1.16;74.42
9746;BME280;4912;50.836;12.958;2024-01-16T08:30:30;96902.59;;;1.21;74.62
9746;BME280;4912;50.836;12.958;2024-01-16T08:33:00;96907.44;;;1.13;74.82
9746;BME280;4912;50.836;12.958;2024-01-16T08:35:31;96907.28;;;1.20;74.57
9746;BME280;4912;50.836;12.958;2024-01-16T08:38:02;96915.31;;;1.11;74.77
9746;BME280;4912;50.836;12.958;2024-01-16T08:40:33;96917.31;;;1.07;75.04
9746;BME280;4912;50.836;12.958;2024-01-16T08:43:06;96925.19;;;1.05;75.57
9746;BME280;4912;50.836;12.958;2024-01-16T08:45:37;96924.72;;;1.07;75.76
9746;BME280;4912;50.836;12.958;2024-01-16T08:48:08;96927.88;;;1.21;75.08
9746;BME280;4912;50.836;12.958;2024-01-16T08:50:40;96919.59;;;1.41;74.82
9746;BME280;4912;50.836;12.958;2024-01-16T08:53:11;96922.94;;;1.33;73.99
9746;BME280;4912;50.836;12.958;2024-01-16T08:55:42;96924.53;;;1.46;74.15
9746;BME280;4912;50.836;12.958;2024-01-16T08:58:15;96929.16;;;1.62;73.45
9746;BME280;4912;50.836;12.958;2024-01-16T09:00:45;96922.34;;;1.70;72.65
9746;BME280;4912;50.836;12.958;2024-01-16T09:03:16;96932.56;;;1.95;72.40
9746;BME280;4912;50.836;12.958;2024-01-16T09:05:48;96934.50;;;1.82;71.91
9746;BME280;4912;50.836;12.958;2024-01-16T09:08:18;96943.47;;;1.66;72.44
9746;BME280;4912;50.836;12.958;2024-01-16T09:10:49;96948.59;;;1.64;73.25
9746;BME280;4912;50.836;12.958;2024-01-16T09:13:22;96948.06;;;1.69;73.10
9746;BME280;4912;50.836;12.958;2024-01-16T09:15:53;96944.75;;;1.61;73.05
9746;BME280;4912;50.836;12.958;2024-01-16T09:18:23;96960.22;;;1.52;73.76
9746;BME280;4912;50.836;12.958;2024-01-16T09:20:54;96947.75;;;1.51;73.60
9746;BME280;4912;50.836;12.958;2024-01-16T09:23:25;96945.97;;;1.44;74.43
9746;BME280;4912;50.836;12.958;2024-01-16T09:25:56;96954.31;;;1.53;74.68
9746;BME280;4912;50.836;12.958;2024-01-16T09:28:29;96955.63;;;1.78;74.01
9746;BME280;4912;50.836;12.958;2024-01-16T09:31:00;96957.16;;;1.79;73.24
9746;BME280;4912;50.836;12.958;2024-01-16T09:33:31;96957.19;;;1.62;73.59
9746;BME280;4912;50.836;12.958;2024-01-16T09:36:02;96953.88;;;1.55;74.54
9746;BME280;4912;50.836;12.958;2024-01-16T09:38:33;96945.72;;;1.55;74.52
9746;BME280;4912;50.836;12.958;2024-01-16T09:41:04;96953.88;;;1.55;74.82
9746;BME280;4912;50.836;12.958;2024-01-16T09:43:37;96948.19;;;1.49;74.98
9746;BME280;4912;50.836;12.958;2024-01-16T09:46:08;96955.25;;;1.63;75.73
9746;BME280;4912;50.836;12.958;2024-01-16T09:48:41;96951.56;;;1.70;74.75
9746;BME280;4912;50.836;12.958;2024-01-16T09:51:14;96956.91;;;1.73;74.34
9746;BME280;4912;50.836;12.958;2024-01-16T09:53:45;96952.22;;;2.02;73.95
9746;BME280;4912;50.836;12.958;2024-01-16T09:56:18;96955.13;;;1.95;73.57
9746;BME280;4912;50.836;12.958;2024-01-16T09:58:58;96956.34;;;1.94;73.16
9746;BME280;4912;50.836;12.958;2024-01-16T10:01:33;96951.63;;;2.24;72.92
9746;BME280;4912;50.836;12.958;2024-01-16T10:04:04;96951.88;;;2.42;71.87
9746;BME280;4912;50.836;12.958;2024-01-16T10:06:38;96951.13;;;2.54;71.47
9746;BME280;4912;50.836;12.958;2024-01-16T10:09:09;96946.75;;;2.44;70.47
9746;BME280;4912;50.836;12.958;2024-01-16T10:11:40;96950.09;;;2.23;71.09
9746;BME280;4912;50.836;12.958;2024-01-16T10:14:13;96950.88;;;2.36;71.07
9746;BME280;4912;50.836;12.958;2024-01-16T10:16:58;96951.66;;;2.49;70.87
9746;BME280;4912;50.836;12.958;2024-01-16T10:19:30;96948.47;;;2.38;70.74
9746;BME280;4912;50.836;12.958;2024-01-16T10:22:19;96949.28;;;2.64;70.90
9746;BME280;4912;50.836;12.958;2024-01-16T10:25:04;96949.59;;;2.78;69.04
9746;BME280;4912;50.836;12.958;2024-01-16T10:27:37;96953.00;;;2.82;68.85
9746;BME280;4912;50.836;12.958;2024-01-16T10:30:11;96955.63;;;2.86;68.06
9746;BME280;4912;50.836;12.958;2024-01-16T10:32:43;96945.47;;;3.12;68.33
9746;BME280;4912;50.836;12.958;2024-01-16T10:35:16;96964.00;;;3.29;66.57
9746;BME280;4912;50.836;12.958;2024-01-16T10:37:49;96952.53;;;3.22;66.97
9746;BME280;4912;50.836;12.958;2024-01-16T10:40:22;96948.69;;;3.32;66.88
9746;BME280;4912;50.836;12.958;2024-01-16T10:43:00;96956.31;;;3.37;66.29
9746;BME280;4912;50.836;12.958;2024-01-16T10:45:35;96952.72;;;3.40;66.00
9746;BME280;4912;50.836;12.958;2024-01-16T10:48:07;96949.09;;;3.43;65.35
9746;BME280;4912;50.836;12.958;2024-01-16T10:50:38;96942.06;;;3.55;65.02
9746;BME280;4912;50.836;12.958;2024-01-16T10:53:09;96949.50;;;3.54;65.25
9746;BME280;4912;50.836;12.958;2024-01-16T10:55:48;96951.94;;;3.52;65.56
9746;BME280;4912;50.836;12.958;2024-01-16T10:58:23;96949.66;;;3.38;65.27
9746;BME280;4912;50.836;12.958;2024-01-16T11:01:01;96953.38;;;3.32;65.41
9746;BME280;4912;50.836;12.958;2024-01-16T11:03:36;96947.41;;;3.24;65.30
9746;BME280;4912;50.836;12.958;2024-01-16T11:06:10;96953.94;;;3.39;65.56
9746;BME280;4912;50.836;12.958;2024-01-16T11:08:42;96955.84;;;3.64;63.89
9746;BME280;4912;50.836;12.958;2024-01-16T11:11:13;96950.00;;;3.75;63.36
9746;BME280;4912;50.836;12.958;2024-01-16T11:13:45;96944.22;;;3.94;63.32
9746;BME280;4912;50.836;12.958;2024-01-16T11:16:20;96946.34;;;4.12;62.70
9746;BME280;4912;50.836;12.958;2024-01-16T11:18:51;96937.34;;;4.33;61.69
9746;BME280;4912;50.836;12.958;2024-01-16T11:21:35;96942.56;;;4.19;61.99
9746;BME280;4912;50.836;12.958;2024-01-16T11:24:09;96937.69;;;4.44;61.58
9746;BME280;4912;50.836;12.958;2024-01-16T11:26:40;96938.41;;;4.67;60.94
9746;BME280;4912;50.836;12.958;2024-01-16T11:29:35;96931.28;;;4.69;59.97
9746;BME280;4912;50.836;12.958;2024-01-16T11:32:34;96925.91;;;4.57;59.51
9746;BME280;4912;50.836;12.958;2024-01-16T11:35:08;96925.06;;;4.78;60.07
9746;BME280;4912;50.836;12.958;2024-01-16T11:37:41;96919.03;;;4.92;58.49
9746;BME280;4912;50.836;12.958;2024-01-16T11:40:25;96924.19;;;4.90;57.68
9746;BME280;4912;50.836;12.958;2024-01-16T11:42:56;96924.91;;;5.12;57.16
9746;BME280;4912;50.836;12.958;2024-01-16T11:45:48;96923.09;;;5.27;56.96
9746;BME280;4912;50.836;12.958;2024-01-16T11:48:25;96926.50;;;4.91;57.10
9746;BME280;4912;50.836;12.958;2024-01-16T11:50:56;96923.38;;;4.71;57.85
9746;BME280;4912;50.836;12.958;2024-01-16T11:53:34;96928.63;;;4.57;58.63
9746;BME280;4912;50.836;12.958;2024-01-16T11:56:31;96932.31;;;4.32;60.13
9746;BME280;4912;50.836;12.958;2024-01-16T11:59:42;96926.59;;;4.17;60.55
9746;BME280;4912;50.836;12.958;2024-01-16T12:02:29;96929.13;;;3.90;60.73
9746;BME280;4912;50.836;12.958;2024-01-16T12:05:13;96928.56;;;3.95;61.48
9746;BME280;4912;50.836;12.958;2024-01-16T12:07:46;96920.03;;;4.15;60.83
9746;BME280;4912;50.836;12.958;2024-01-16T12:10:19;96923.59;;;4.02;60.42
9746;BME280;4912;50.836;12.958;2024-01-16T12:12:51;96920.72;;;3.84;61.34
9746;BME280;4912;50.836;12.958;2024-01-16T12:15:31;96920.88;;;3.81;61.46
9746;BME280;4912;50.836;12.958;2024-01-16T12:18:03;96923.09;;;3.95;61.64
9746;BME280;4912;50.836;12.958;2024-01-16T12:20:45;96914.81;;;3.86;61.82
9746;BME280;4912;50.836;12.958;2024-01-16T12:23:16;96913.38;;;3.59;62.41
9746;BME280;4912;50.836;12.958;2024-01-16T12:25:52;96914.22;;;3.47;62.63
9746;BME280;4912;50.836;12.958;2024-01-16T12:28:30;96911.72;;;3.40;62.81
9746;BME280;4912;50.836;12.958;2024-01-16T12:31:01;96919.41;;;3.20;62.51
9746;BME280;4912;50.836;12.958;2024-01-16T12:33:32;96915.63;;;3.05;63.09
9746;BME280;4912;50.836;12.958;2024-01-16T12:36:08;96905.56;;;3.02;63.86
9746;BME280;4912;50.836;12.958;2024-01-16T12:38:39;96898.78;;;3.06;64.27
9746;BME280;4912;50.836;12.958;2024-01-16T12:41:10;96904.41;;;3.24;63.55
9746;BME280;4912;50.836;12.958;2024-01-16T12:43:43;96905.97;;;3.13;62.55
9746;BME280;4912;50.836;12.958;2024-01-16T12:46:21;96909.34;;;3.29;62.91
9746;BME280;4912;50.836;12.958;2024-01-16T12:48:51;96901.03;;;3.20;63.49
9746;BME280;4912;50.836;12.958;2024-01-16T12:51:34;96899.38;;;2.88;63.19
9746;BME280;4912;50.836;12.958;2024-01-16T12:54:12;96889.16;;;3.02;64.10
9746;BME280;4912;50.836;12.958;2024-01-16T12:56:44;96886.06;;;3.12;63.93
9746;BME280;4912;50.836;12.958;2024-01-16T12:59:14;96885.03;;;2.84;63.92
9746;BME280;4912;50.836;12.958;2024-01-16T13:01:45;96885.94;;;2.81;64.66
9746;BME280;4912;50.836;12.958;2024-01-16T13:04:16;96878.28;;;2.76;64.24
9746;BME280;4912;50.836;12.958;2024-01-16T13:07:01;96884.63;;;2.73;64.17
9746;BME280;4912;50.836;12.958;2024-01-16T13:09:32;96888.53;;;2.72;64.36
9746;BME280;4912;50.836;12.958;2024-01-16T13:12:04;96882.09;;;2.66;64.61
9746;BME280;4912;50.836;12.958;2024-01-16T13:14:35;96883.63;;;2.67;64.65
9746;BME280;4912;50.836;12.958;2024-01-16T13:17:06;96887.22;;;2.77;64.75
9746;BME280;4912;50.836;12.958;2024-01-16T13:19:37;96887.69;;;2.75;64.11
9746;BME280;4912;50.836;12.958;2024-01-16T13:22:11;96886.38;;;2.67;64.49
9746;BME280;4912;50.836;12.958;2024-01-16T13:24:42;96892.13;;;2.95;64.45
9746;BME280;4912;50.836;12.958;2024-01-16T13:27:27;96888.94;;;3.09;63.92
9746;BME280;4912;50.836;12.958;2024-01-16T13:29:59;96889.81;;;3.06;64.06
9746;BME280;4912;50.836;12.958;2024-01-16T13:32:30;96891.66;;;3.09;64.20
9746;BME280;4912;50.836;12.958;2024-01-16T13:35:05;96893.09;;;3.01;64.42
9746;BME280;4912;50.836;12.958;2024-01-16T13:37:39;96885.56;;;2.92;65.00
9746;BME280;4912;50.836;12.958;2024-01-16T13:40:10;96888.66;;;2.81;65.49
9746;BME280;4912;50.836;12.958;2024-01-16T13:42:48;96898.69;;;2.72;66.26
9746;BME280;4912;50.836;12.958;2024-01-16T13:45:19;96901.22;;;2.66;66.59
9746;BME280;4912;50.836;12.958;2024-01-16T13:47:50;96908.63;;;2.78;66.40
9746;BME280;4912;50.836;12.958;2024-01-16T13:50:21;96907.00;;;2.68;66.53
9746;BME280;4912;50.836;12.958;2024-01-16T13:52:54;96896.63;;;2.63;66.67